Vermillion, South Dakota
Current Conditions -  °F | °C
As of 10:55 PM on Friday 28 Nov 2014 (Local Time) from KYKN Reporting Station
Clear Clear  
Wind Chill: 21°   Ceiling: Unl
Heat Index: 27°   Visibility: 5mi
Dew Point: 25°   Wind: 5mph
Humidity: 93%   Direction: 80°E
Pressure: 29.56"   Gusts: NA
Location:  42.79°N, 96.93°W
Report Text: KYKN 290455Z AUTO 08004KT 5SM CLR M03/M04 A2956 RMK AO1
Loading
Personal Weather Stations






























Interactive Weather Map New forecast layout! Learn more

10-Day Weather Forecast

Advertisements
Track Severe Weather on mobile